createdAt,value
2022-12-12T00:01:13.993Z,19.63
2022-12-12T00:03:42.084Z,19.62
2022-12-12T00:06:10.087Z,19.61
2022-12-12T00:08:38.102Z,19.61
2022-12-12T00:11:07.744Z,19.62
2022-12-12T00:13:36.394Z,19.63
2022-12-12T00:16:06.144Z,19.63
2022-12-12T00:18:34.117Z,19.61
2022-12-12T00:21:02.066Z,19.62
2022-12-12T00:23:29.997Z,19.61
2022-12-12T00:25:59.985Z,19.60
2022-12-12T00:28:29.622Z,19.61
2022-12-12T00:30:57.673Z,19.61
2022-12-12T00:33:25.765Z,19.61
2022-12-12T00:35:55.457Z,19.61
2022-12-12T00:38:25.121Z,19.60
2022-12-12T00:40:57.636Z,19.60
2022-12-12T00:43:25.818Z,19.60
2022-12-12T00:45:55.373Z,19.60
2022-12-12T00:48:23.357Z,19.60
2022-12-12T00:50:51.330Z,19.37
2022-12-12T00:53:19.324Z,19.61
2022-12-12T00:55:47.823Z,19.60
2022-12-12T00:58:15.763Z,19.61
2022-12-12T01:00:43.860Z,19.61
2022-12-12T01:03:13.313Z,19.61
2022-12-12T01:05:41.585Z,19.56
2022-12-12T01:08:09.605Z,19.62
2022-12-12T01:10:37.665Z,19.47
2022-12-12T01:13:05.834Z,19.59
2022-12-12T01:15:33.852Z,19.60
2022-12-12T01:18:01.832Z,19.60
2022-12-12T01:20:31.191Z,19.60
2022-12-12T01:22:59.203Z,19.60
2022-12-12T01:25:27.550Z,19.61
2022-12-12T01:27:55.499Z,19.61
2022-12-12T01:30:24.461Z,19.60
2022-12-12T01:32:52.621Z,19.61
2022-12-12T01:35:20.691Z,19.61
2022-12-12T01:37:50.400Z,19.61
2022-12-12T01:40:21.308Z,19.61
2022-12-12T01:42:49.665Z,19.60
2022-12-12T01:45:54.845Z,19.60
2022-12-12T01:48:25.099Z,19.60
2022-12-12T01:50:53.422Z,19.60
2022-12-12T01:53:23.383Z,19.59
2022-12-12T01:55:51.921Z,19.60
2022-12-12T01:58:19.894Z,19.60
2022-12-12T02:00:47.903Z,19.56
2022-12-12T02:03:15.880Z,19.59
2022-12-12T02:05:49.145Z,19.59
2022-12-12T02:08:19.053Z,19.59
2022-12-12T02:10:48.824Z,19.57
2022-12-12T02:13:20.927Z,19.60
2022-12-12T02:16:01.243Z,19.59
2022-12-12T02:18:39.133Z,19.59
2022-12-12T02:21:15.595Z,19.60
2022-12-12T02:24:26.344Z,19.59
2022-12-12T02:27:29.744Z,19.58
2022-12-12T02:30:12.669Z,19.58
2022-12-12T02:33:20.495Z,19.59
2022-12-12T02:36:08.572Z,19.53
2022-12-12T02:38:45.128Z,19.57
2022-12-12T02:41:19.444Z,19.58
2022-12-12T02:43:57.570Z,19.58
2022-12-12T02:46:31.411Z,19.57
2022-12-12T02:49:03.335Z,19.43
2022-12-12T02:51:34.614Z,19.58
2022-12-12T02:54:05.423Z,19.55
2022-12-12T02:56:52.826Z,19.58
2022-12-12T02:59:27.039Z,19.57
2022-12-12T03:02:10.518Z,19.57
2022-12-12T03:05:18.825Z,19.57
2022-12-12T03:08:03.369Z,19.57
2022-12-12T03:10:42.577Z,19.57
2022-12-12T03:13:15.461Z,19.57
2022-12-12T03:15:54.106Z,19.58
2022-12-12T03:18:29.101Z,19.57
2022-12-12T03:21:05.524Z,19.57
2022-12-12T03:23:40.668Z,19.58
2022-12-12T03:26:15.204Z,19.55
2022-12-12T03:28:48.947Z,19.57
2022-12-12T03:31:21.238Z,19.58
2022-12-12T03:33:54.582Z,19.58
2022-12-12T03:36:27.262Z,19.58
2022-12-12T03:39:00.833Z,19.58
2022-12-12T03:41:33.269Z,19.57
2022-12-12T03:44:07.063Z,19.59
2022-12-12T03:46:42.218Z,19.59
2022-12-12T03:49:16.566Z,19.59
2022-12-12T03:51:48.321Z,19.59
2022-12-12T03:54:24.264Z,19.59
2022-12-12T03:56:58.713Z,19.36
2022-12-12T03:59:33.941Z,19.58
2022-12-12T04:02:09.367Z,19.59
2022-12-12T04:04:44.275Z,19.59
2022-12-12T04:07:17.407Z,19.58
2022-12-12T04:10:04.752Z,19.60
2022-12-12T04:12:57.180Z,19.51
2022-12-12T04:15:50.736Z,19.58
2022-12-12T04:18:27.122Z,19.57
2022-12-12T04:21:21.824Z,19.58
2022-12-12T04:23:58.059Z,19.59
2022-12-12T04:26:42.829Z,19.59
2022-12-12T04:29:21.858Z,19.59
2022-12-12T04:31:56.478Z,19.59
2022-12-12T04:34:31.865Z,19.34
2022-12-12T04:37:00.595Z,19.58
2022-12-12T04:39:30.425Z,19.51
2022-12-12T04:42:04.835Z,19.58
2022-12-12T04:44:34.737Z,19.58
2022-12-12T04:47:06.562Z,19.57
2022-12-12T04:49:36.898Z,19.59
2022-12-12T04:52:08.734Z,19.59
2022-12-12T04:54:43.829Z,19.59
2022-12-12T04:57:20.085Z,19.59
2022-12-12T04:59:48.270Z,19.59
2022-12-12T05:02:24.744Z,19.60
2022-12-12T05:04:58.356Z,19.59
2022-12-12T05:07:39.469Z,19.58
2022-12-12T05:10:12.063Z,19.56
2022-12-12T05:12:47.335Z,19.55
2022-12-12T05:15:16.468Z,19.48
2022-12-12T05:17:47.268Z,19.55
2022-12-12T05:20:16.227Z,19.55
2022-12-12T05:22:44.189Z,19.55
2022-12-12T05:25:13.962Z,19.56
2022-12-12T05:27:42.126Z,19.56
2022-12-12T05:30:12.674Z,19.57
2022-12-12T05:32:40.703Z,19.57
2022-12-12T05:35:11.337Z,19.57
2022-12-12T05:37:39.516Z,19.57
2022-12-12T05:40:09.553Z,19.56
2022-12-12T05:42:37.559Z,19.57
2022-12-12T05:45:06.456Z,19.57
2022-12-12T05:47:36.359Z,19.58
2022-12-12T05:50:05.673Z,19.55
2022-12-12T05:52:33.701Z,19.57
2022-12-12T05:55:01.704Z,19.57
2022-12-12T05:57:29.671Z,19.58
2022-12-12T05:59:57.626Z,19.57
2022-12-12T06:02:25.681Z,19.55
2022-12-12T06:04:55.108Z,19.55
2022-12-12T06:07:23.060Z,19.59
2022-12-12T06:09:51.009Z,19.60
2022-12-12T06:12:18.961Z,19.60
2022-12-12T06:14:46.954Z,19.59
2022-12-12T06:17:15.383Z,19.62
2022-12-12T06:19:43.499Z,19.66
2022-12-12T06:22:12.897Z,19.68
2022-12-12T06:24:40.907Z,19.70
2022-12-12T06:27:08.854Z,19.71
2022-12-12T06:29:36.855Z,19.71
2022-12-12T06:32:05.636Z,19.74
2022-12-12T06:34:33.640Z,19.76
2022-12-12T06:37:02.297Z,19.75
2022-12-12T06:39:31.656Z,19.77
2022-12-12T06:41:59.629Z,19.79
2022-12-12T06:44:27.654Z,19.78
2022-12-12T06:46:55.633Z,19.78
2022-12-12T06:49:23.568Z,19.79
2022-12-12T06:51:51.549Z,19.80
2022-12-12T06:54:20.256Z,19.82
2022-12-12T06:56:49.581Z,19.83
2022-12-12T06:59:17.872Z,19.83
2022-12-12T07:01:47.046Z,19.84
2022-12-12T07:04:15.879Z,19.82
2022-12-12T07:06:44.004Z,19.84
2022-12-12T07:09:12.186Z,19.83
2022-12-12T07:11:40.819Z,19.85
2022-12-12T07:14:12.073Z,19.76
2022-12-12T07:16:40.107Z,19.83
2022-12-12T07:19:08.680Z,19.86
2022-12-12T07:21:36.654Z,19.88
2022-12-12T07:24:04.829Z,19.88
2022-12-12T07:26:32.831Z,19.86
2022-12-12T07:29:03.781Z,19.89
2022-12-12T07:31:33.256Z,19.88
2022-12-12T07:34:01.310Z,19.89
2022-12-12T07:36:29.279Z,19.87
2022-12-12T07:38:57.265Z,19.85
2022-12-12T07:41:25.224Z,19.86
2022-12-12T07:43:53.510Z,19.86
2022-12-12T07:46:24.395Z,19.86
2022-12-12T07:48:54.352Z,19.85
2022-12-12T07:51:23.184Z,19.87
2022-12-12T07:53:51.204Z,19.87
2022-12-12T07:56:20.620Z,19.87
2022-12-12T07:58:48.967Z,19.88
2022-12-12T08:01:18.852Z,19.88
2022-12-12T08:03:48.017Z,19.89
2022-12-12T08:06:18.105Z,19.90
2022-12-12T08:08:46.381Z,19.89
2022-12-12T08:11:16.722Z,19.88
2022-12-12T08:13:45.215Z,19.69
2022-12-12T08:16:15.758Z,19.89
2022-12-12T08:18:44.029Z,19.74
2022-12-12T08:21:13.544Z,19.90
2022-12-12T08:23:43.825Z,19.91
2022-12-12T08:26:14.001Z,19.92
2022-12-12T08:28:44.888Z,19.91
2022-12-12T08:31:14.337Z,19.92
2022-12-12T08:33:42.471Z,19.93
2022-12-12T08:36:16.161Z,19.94
2022-12-12T08:38:46.011Z,19.86
2022-12-12T08:41:15.051Z,19.94
2022-12-12T08:43:44.683Z,19.95
2022-12-12T08:46:18.464Z,19.95
2022-12-12T08:48:46.993Z,19.96
2022-12-12T08:51:15.243Z,19.96
2022-12-12T08:53:46.890Z,19.96
2022-12-12T08:56:15.111Z,19.93
2022-12-12T08:58:43.393Z,19.94
2022-12-12T09:01:12.542Z,19.95
2022-12-12T09:03:40.941Z,19.96
2022-12-12T09:06:10.311Z,19.91
2022-12-12T09:08:38.393Z,19.94
2022-12-12T09:11:08.382Z,19.91
2022-12-12T09:13:37.801Z,19.92
2022-12-12T09:16:06.311Z,19.92
2022-12-12T09:18:34.802Z,19.96
2022-12-12T09:21:02.945Z,19.95
2022-12-12T09:23:31.288Z,19.96
2022-12-12T09:25:59.348Z,19.95
2022-12-12T09:28:28.712Z,19.96
2022-12-12T09:30:56.705Z,19.97
2022-12-12T09:33:24.660Z,19.98
2022-12-12T09:35:59.597Z,19.98
2022-12-12T09:38:27.795Z,19.97
2022-12-12T09:40:58.147Z,19.97
2022-12-12T09:43:32.386Z,19.96
2022-12-12T09:46:02.855Z,19.93
2022-12-12T09:48:39.940Z,19.92
2022-12-12T09:51:08.352Z,19.90
2022-12-12T09:53:37.520Z,19.93
2022-12-12T09:56:11.961Z,19.93
2022-12-12T09:58:51.302Z,19.94
2022-12-12T10:01:27.516Z,19.95
2022-12-12T10:04:07.666Z,19.92
2022-12-12T10:06:42.042Z,19.92
2022-12-12T10:09:32.820Z,19.92
2022-12-12T10:12:07.992Z,19.93
2022-12-12T10:14:40.973Z,19.91
2022-12-12T10:17:15.863Z,19.91
2022-12-12T10:19:49.853Z,19.91
2022-12-12T10:22:25.906Z,19.92
2022-12-12T10:24:58.808Z,19.91
2022-12-12T10:27:26.805Z,19.92
2022-12-12T10:30:15.888Z,19.92
2022-12-12T10:32:59.127Z,19.92
2022-12-12T10:35:35.143Z,19.91
2022-12-12T10:38:18.805Z,19.92
2022-12-12T10:40:54.781Z,19.91
2022-12-12T10:43:27.855Z,19.84
2022-12-12T10:46:10.926Z,19.88
2022-12-12T10:48:40.395Z,19.90
2022-12-12T10:51:12.742Z,19.91
2022-12-12T10:53:43.223Z,19.91
2022-12-12T10:56:13.436Z,19.92
2022-12-12T10:58:43.025Z,19.90
2022-12-12T11:01:38.410Z,19.91
2022-12-12T11:04:10.102Z,19.90
2022-12-12T11:06:40.539Z,19.90
2022-12-12T11:09:16.869Z,19.90
2022-12-12T11:11:59.263Z,19.93
2022-12-12T11:14:36.541Z,19.93
2022-12-12T11:17:22.153Z,19.90
2022-12-12T11:19:50.431Z,19.87
2022-12-12T11:22:18.567Z,19.85
2022-12-12T11:24:48.352Z,19.83
2022-12-12T11:27:23.005Z,19.82
2022-12-12T11:29:53.630Z,19.81
2022-12-12T11:32:26.540Z,19.81
2022-12-12T11:34:56.858Z,19.78
2022-12-12T11:37:29.032Z,19.78
2022-12-12T11:39:58.402Z,19.78
2022-12-12T11:42:29.341Z,19.79
2022-12-12T11:45:01.910Z,19.79
2022-12-12T11:47:38.502Z,19.81
2022-12-12T11:50:19.698Z,19.84
2022-12-12T11:52:48.491Z,19.84
2022-12-12T11:55:18.471Z,19.84
2022-12-12T11:58:08.904Z,19.85
2022-12-12T12:00:45.978Z,19.84
2022-12-12T12:03:30.405Z,19.87
2022-12-12T12:06:18.296Z,19.85
2022-12-12T12:09:07.165Z,19.86
2022-12-12T12:11:43.278Z,19.87
2022-12-12T12:14:28.456Z,19.84
2022-12-12T12:17:05.893Z,19.85
2022-12-12T12:19:44.256Z,19.86
2022-12-12T12:22:27.558Z,19.86
2022-12-12T12:25:10.031Z,19.86
2022-12-12T12:27:44.852Z,19.86
2022-12-12T12:30:21.752Z,19.86
2022-12-12T12:33:17.409Z,19.87
2022-12-12T12:35:57.778Z,19.86
2022-12-12T12:38:36.402Z,19.87
2022-12-12T12:41:22.893Z,19.87
2022-12-12T12:44:05.627Z,19.87
2022-12-12T12:46:42.643Z,19.85
2022-12-12T12:49:16.740Z,19.88
2022-12-12T12:51:50.796Z,19.89
2022-12-12T12:54:25.108Z,19.89
2022-12-12T12:56:59.730Z,19.88
2022-12-12T12:59:34.916Z,19.89
2022-12-12T13:02:12.061Z,19.90
2022-12-12T13:04:45.145Z,19.91
2022-12-12T13:07:20.159Z,19.69
2022-12-12T13:09:56.293Z,19.92
2022-12-12T13:12:30.734Z,19.91
2022-12-12T13:15:02.808Z,19.92
2022-12-12T13:17:46.554Z,19.93
2022-12-12T13:20:19.170Z,19.91
2022-12-12T13:22:57.459Z,19.90
2022-12-12T13:25:36.253Z,19.89
2022-12-12T13:28:11.986Z,19.63
2022-12-12T13:30:54.509Z,19.86
2022-12-12T13:33:41.787Z,19.85
2022-12-12T13:36:16.068Z,19.82
2022-12-12T13:38:50.631Z,19.81
2022-12-12T13:41:18.836Z,19.80
2022-12-12T13:43:49.127Z,19.79
2022-12-12T13:46:42.020Z,19.78
2022-12-12T13:49:24.588Z,19.79
2022-12-12T13:51:52.578Z,19.78
2022-12-12T13:54:47.071Z,19.77
2022-12-12T13:57:23.573Z,19.77
2022-12-12T14:00:22.742Z,19.77
2022-12-12T14:03:02.097Z,19.75
2022-12-12T14:05:33.840Z,19.74
2022-12-12T14:08:06.954Z,19.72
2022-12-12T14:10:38.141Z,19.73
2022-12-12T14:13:30.535Z,19.71
2022-12-12T14:16:05.317Z,19.73
2022-12-12T14:18:39.068Z,19.70
2022-12-12T14:21:11.704Z,19.74
2022-12-12T14:23:42.453Z,19.74
2022-12-12T14:26:51.815Z,19.73
2022-12-12T14:29:26.452Z,19.73
2022-12-12T14:32:07.882Z,19.73
2022-12-12T14:34:44.542Z,19.69
2022-12-12T14:37:33.743Z,19.71
2022-12-12T14:40:05.565Z,19.69
2022-12-12T14:43:21.414Z,19.69
2022-12-12T14:45:38.424Z,19.70
2022-12-12T14:48:11.824Z,19.70
2022-12-12T14:50:41.116Z,19.68
2022-12-12T14:53:17.498Z,19.65
2022-12-12T14:55:52.345Z,19.69
2022-12-12T14:58:23.858Z,19.67
2022-12-12T15:00:54.762Z,19.70
2022-12-12T15:03:30.536Z,19.69
2022-12-12T15:06:37.443Z,19.69
2022-12-12T15:09:29.427Z,19.68
2022-12-12T15:12:13.432Z,19.67
2022-12-12T15:14:56.188Z,19.68
2022-12-12T15:17:28.545Z,19.67
2022-12-12T15:19:58.990Z,19.66
2022-12-12T15:22:29.737Z,19.65
2022-12-12T15:24:59.899Z,19.67
2022-12-12T15:27:31.513Z,19.66
2022-12-12T15:30:02.545Z,19.64
2022-12-12T15:32:31.150Z,19.64
2022-12-12T15:35:05.108Z,19.59
2022-12-12T15:37:34.967Z,19.66
2022-12-12T15:40:19.666Z,19.65
2022-12-12T15:42:51.465Z,19.67
2022-12-12T15:45:25.884Z,19.64
2022-12-12T15:47:55.388Z,19.66
2022-12-12T15:50:25.708Z,19.64
2022-12-12T15:53:03.069Z,19.65
2022-12-12T15:55:31.327Z,19.61
2022-12-12T15:57:59.621Z,19.66
2022-12-12T16:00:37.084Z,19.66
2022-12-12T16:03:19.143Z,19.65
2022-12-12T16:05:59.599Z,19.65
2022-12-12T16:08:31.970Z,19.64
2022-12-12T16:11:01.229Z,19.64
2022-12-12T16:13:37.186Z,19.64
2022-12-12T16:16:39.007Z,19.65
2022-12-12T16:19:18.184Z,19.64
2022-12-12T16:21:46.244Z,19.64
2022-12-12T16:24:22.762Z,19.64
2022-12-12T16:26:50.838Z,19.64
2022-12-12T16:29:19.010Z,19.64
2022-12-12T16:31:49.646Z,19.64
2022-12-12T16:34:18.066Z,19.64
2022-12-12T16:36:46.480Z,19.63
2022-12-12T16:39:16.916Z,19.65
2022-12-12T16:41:44.959Z,19.65
2022-12-12T16:44:12.983Z,19.65
2022-12-12T16:46:40.928Z,19.66
2022-12-12T16:49:15.347Z,19.65
2022-12-12T16:51:43.987Z,19.64
2022-12-12T16:54:16.918Z,19.66
2022-12-12T16:56:50.563Z,19.65
2022-12-12T16:59:18.690Z,19.65
2022-12-12T17:01:46.834Z,19.66
2022-12-12T17:04:22.429Z,19.65
2022-12-12T17:06:51.094Z,19.43
2022-12-12T17:09:21.414Z,19.66
2022-12-12T17:11:49.566Z,19.65
2022-12-12T17:14:21.641Z,19.65
2022-12-12T17:16:49.779Z,19.66
2022-12-12T17:19:19.233Z,19.69
2022-12-12T17:21:47.300Z,19.66
2022-12-12T17:24:15.511Z,19.75
2022-12-12T17:26:43.778Z,19.74
2022-12-12T17:29:11.841Z,19.74
2022-12-12T17:31:40.823Z,19.69
2022-12-12T17:34:08.820Z,19.71
2022-12-12T17:36:38.175Z,19.71
2022-12-12T17:39:06.309Z,19.69
2022-12-12T17:41:34.379Z,19.67
2022-12-12T17:44:02.337Z,19.68
2022-12-12T17:46:30.323Z,19.68
2022-12-12T17:49:02.011Z,19.68
2022-12-12T17:51:30.960Z,19.64
2022-12-12T17:54:00.726Z,19.67
2022-12-12T17:56:28.986Z,19.67
2022-12-12T17:58:57.078Z,19.68
2022-12-12T18:01:27.557Z,19.67
2022-12-12T18:03:56.445Z,19.68
2022-12-12T18:06:25.082Z,19.65
2022-12-12T18:08:53.599Z,19.67
2022-12-12T18:11:24.792Z,19.66
2022-12-12T18:13:54.684Z,19.65
2022-12-12T18:16:24.636Z,19.66
2022-12-12T18:18:53.159Z,19.66
2022-12-12T18:21:51.775Z,19.65
2022-12-12T18:24:11.352Z,19.60
2022-12-12T18:26:40.805Z,19.66
2022-12-12T18:29:10.068Z,19.67
2022-12-12T18:31:38.136Z,19.65
2022-12-12T18:34:06.923Z,19.64
2022-12-12T18:36:34.909Z,19.66
2022-12-12T18:39:06.177Z,19.66
2022-12-12T18:41:36.716Z,19.65
2022-12-12T18:44:08.165Z,19.65
2022-12-12T18:46:42.675Z,19.66
2022-12-12T18:49:13.071Z,19.65
2022-12-12T18:51:41.168Z,19.67
2022-12-12T18:54:14.295Z,19.66
2022-12-12T18:56:43.703Z,19.66
2022-12-12T18:59:13.326Z,19.65
2022-12-12T19:01:41.409Z,19.66
2022-12-12T19:04:14.169Z,19.67
2022-12-12T19:06:44.304Z,19.57
2022-12-12T19:09:15.702Z,19.67
2022-12-12T19:11:44.362Z,19.68
2022-12-12T19:14:15.515Z,19.67
2022-12-12T19:16:44.335Z,19.66
2022-12-12T19:19:13.081Z,19.66
2022-12-12T19:21:41.882Z,19.65
2022-12-12T19:24:12.552Z,19.65
2022-12-12T19:26:42.127Z,19.65
2022-12-12T19:29:14.110Z,19.65
2022-12-12T19:31:42.109Z,19.66
2022-12-12T19:34:13.101Z,19.65
2022-12-12T19:36:41.424Z,19.67
2022-12-12T19:39:10.011Z,19.67
2022-12-12T19:41:38.158Z,19.66
2022-12-12T19:44:09.007Z,19.67
2022-12-12T19:46:38.367Z,19.67
2022-12-12T19:49:08.660Z,19.67
2022-12-12T19:51:39.242Z,19.67
2022-12-12T19:54:09.602Z,19.67
2022-12-12T19:56:40.659Z,19.66
2022-12-12T19:59:09.208Z,19.62
2022-12-12T20:01:39.342Z,19.65
2022-12-12T20:04:09.817Z,19.64
2022-12-12T20:06:42.190Z,19.66
2022-12-12T20:09:11.508Z,19.50
2022-12-12T20:11:40.061Z,19.62
2022-12-12T20:14:08.416Z,19.66
2022-12-12T20:16:36.382Z,19.63
2022-12-12T20:19:06.112Z,19.66
2022-12-12T20:24:24.172Z,19.65
2022-12-12T20:26:52.865Z,19.61
2022-12-12T20:29:21.702Z,19.64
2022-12-12T20:31:50.153Z,19.64
2022-12-12T20:34:22.671Z,19.64
2022-12-12T20:36:50.713Z,19.63
2022-12-12T20:39:24.351Z,19.62
2022-12-12T20:41:53.674Z,19.63
2022-12-12T20:44:22.633Z,19.62
2022-12-12T20:46:50.823Z,19.64
2022-12-12T20:49:24.074Z,19.61
2022-12-12T20:51:59.671Z,19.64
2022-12-12T20:54:29.540Z,19.64
2022-12-12T20:56:58.992Z,19.65
2022-12-12T20:59:27.969Z,19.63
2022-12-12T21:01:56.269Z,19.63
2022-12-12T21:04:26.040Z,19.60
2022-12-12T21:06:54.062Z,19.63
2022-12-12T21:09:26.408Z,19.61
2022-12-12T21:11:55.613Z,19.61
2022-12-12T21:14:24.313Z,19.61
2022-12-12T21:16:52.335Z,19.61
2022-12-12T21:19:21.150Z,19.63
2022-12-12T21:21:50.728Z,19.63
2022-12-12T21:24:19.233Z,19.62
2022-12-12T21:26:47.815Z,19.63
2022-12-12T21:29:16.264Z,19.61
2022-12-12T21:31:50.956Z,19.60
2022-12-12T21:34:20.391Z,19.61
2022-12-12T21:36:53.558Z,19.60
2022-12-12T21:39:23.129Z,19.61
2022-12-12T21:41:51.572Z,19.60
2022-12-12T21:44:20.020Z,19.60
2022-12-12T21:46:48.218Z,19.59
2022-12-12T21:49:27.647Z,19.60
2022-12-12T21:51:59.001Z,19.60
2022-12-12T21:54:29.222Z,19.61
2022-12-12T21:56:57.316Z,19.61
2022-12-12T21:59:25.751Z,19.40
2022-12-12T22:01:55.729Z,19.63
2022-12-12T22:04:23.715Z,19.65
2022-12-12T22:06:51.730Z,19.64
2022-12-12T22:09:21.066Z,19.64
2022-12-12T22:11:52.100Z,19.64
2022-12-12T22:14:30.905Z,19.62
2022-12-12T22:16:58.950Z,19.62
2022-12-12T22:19:26.987Z,19.62
2022-12-12T22:21:54.949Z,19.62
2022-12-12T22:24:24.329Z,19.61
2022-12-12T22:26:52.288Z,19.63
2022-12-12T22:29:21.436Z,19.63
2022-12-12T22:31:52.275Z,19.60
2022-12-12T22:34:22.437Z,19.63
2022-12-12T22:36:51.026Z,19.61
2022-12-12T22:39:21.655Z,19.58
2022-12-12T22:41:51.362Z,19.61
2022-12-12T22:44:21.504Z,19.42
2022-12-12T22:46:51.032Z,19.61
2022-12-12T22:49:21.147Z,19.61
2022-12-12T22:51:50.636Z,19.61
2022-12-12T22:54:19.306Z,19.63
2022-12-12T22:56:47.272Z,19.61
2022-12-12T22:59:16.623Z,19.62
2022-12-12T23:01:44.737Z,19.61
2022-12-12T23:04:13.956Z,19.64
2022-12-12T23:06:43.411Z,19.63
2022-12-12T23:09:15.442Z,19.61
2022-12-12T23:11:44.483Z,19.64
2022-12-12T23:14:14.899Z,19.65
2022-12-12T23:16:45.248Z,19.65
2022-12-12T23:19:15.785Z,19.65
2022-12-12T23:21:43.858Z,19.65
2022-12-12T23:24:12.104Z,19.65
2022-12-12T23:26:40.751Z,19.64
2022-12-12T23:29:10.242Z,19.65
2022-12-12T23:31:40.015Z,19.64
2022-12-12T23:34:15.514Z,19.65
2022-12-12T23:36:43.968Z,19.65
2022-12-12T23:39:12.638Z,19.65
2022-12-12T23:41:40.769Z,19.65
2022-12-12T23:44:09.661Z,19.65
2022-12-12T23:46:37.588Z,19.65
2022-12-12T23:49:07.834Z,19.65
2022-12-12T23:51:38.933Z,19.58
2022-12-12T23:54:08.864Z,19.65
2022-12-12T23:56:36.956Z,19.65
2022-12-12T23:59:05.283Z,19.57
